Time;durP1;ratioP1;P1;durP2;ratioP2;P2;SDS_P1;SDS_P2;PMS_P1;PMS_P2;Temp;Humidity;BMP_temperature;BMP_pressure;BME280_temperature;BME280_humidity;BME280_pressure;Samples;Min_cycle;Max_cycle;Signal;HPM_P1;HPM_P2
2022/03/06 00:01:36;;;;;;;22.52;10.60;;;;;;;-4.52;100.00;95126.16;4972018;28;20117;-57
2022/03/06 00:04:01;;;;;;;26.02;10.60;;;;;;;-4.54;100.00;95122.91;4991019;28;20109;-54
2022/03/06 00:06:27;;;;;;;25.48;10.73;;;;;;;-4.51;100.00;95109.50;4975243;28;20025;-54
2022/03/06 00:08:52;;;;;;;19.50;10.13;;;;;;;-4.43;100.00;95090.34;4992460;28;20366;-59
2022/03/06 00:11:18;;;;;;;20.58;9.73;;;;;;;-4.48;100.00;95087.41;4992675;28;20033;-57
2022/03/06 00:13:43;;;;;;;21.17;10.05;;;;;;;-4.52;100.00;95076.50;4992502;28;20117;-58
2022/03/06 00:16:08;;;;;;;20.67;10.40;;;;;;;-4.56;100.00;95070.00;4992396;28;20452;-55
2022/03/06 00:18:43;;;;;;;20.35;9.52;;;;;;;-4.63;100.00;95060.38;4992332;28;20046;-57
2022/03/06 00:21:09;;;;;;;22.30;10.48;;;;;;;-4.72;100.00;95057.81;4992555;28;20486;-55
2022/03/06 00:23:34;;;;;;;23.75;10.45;;;;;;;-4.82;100.00;95056.41;4992304;28;20027;-56
2022/03/06 00:26:00;;;;;;;22.80;10.05;;;;;;;-4.95;100.00;95049.13;4992490;28;20018;-55
2022/03/06 00:28:25;;;;;;;23.88;10.75;;;;;;;-5.01;100.00;95045.38;4992373;28;20031;-54
2022/03/06 00:30:51;;;;;;;22.38;10.30;;;;;;;-5.02;100.00;95045.53;4992399;28;20030;-56
2022/03/06 00:33:16;;;;;;;24.70;11.07;;;;;;;-4.97;100.00;95030.19;4992216;28;20492;-56
2022/03/06 00:35:59;;;;;;;26.65;10.45;;;;;;;-4.89;100.00;95024.91;4992310;28;20034;-56
2022/03/06 00:38:24;;;;;;;23.17;10.15;;;;;;;-4.74;100.00;95007.53;4992183;28;20018;-59
2022/03/06 00:40:50;;;;;;;25.77;11.60;;;;;;;-4.63;100.00;94997.66;4991063;28;20038;-59
2022/03/06 00:43:18;;;;;;;27.05;13.20;;;;;;;-4.57;100.00;94987.31;4977997;28;20034;-55
2022/03/06 00:45:44;;;;;;;20.30;10.68;;;;;;;-4.54;100.00;94981.75;4995882;28;20026;-59
2022/03/06 00:48:12;;;;;;;26.90;11.57;;;;;;;-4.58;100.00;94983.06;4996097;28;20350;-56
2022/03/06 00:50:38;;;;;;;23.80;11.15;;;;;;;-4.63;100.00;94984.59;4995796;28;20058;-56
2022/03/06 00:53:07;;;;;;;26.05;11.10;;;;;;;-4.72;100.00;94992.50;4995763;28;20026;-55
2022/03/06 00:55:33;;;;;;;30.40;11.43;;;;;;;-4.87;100.00;94993.41;4995672;28;20030;-55
2022/03/06 00:58:05;;;;;;;22.45;10.30;;;;;;;-4.99;100.00;94988.56;4995594;28;20076;-56
2022/03/06 01:00:36;;;;;;;24.20;11.07;;;;;;;-5.04;100.00;94979.63;4995814;28;20041;-55
2022/03/06 01:03:08;;;;;;;22.10;10.40;;;;;;;-5.09;100.00;94974.91;4994204;28;20026;-60
2022/03/06 01:05:34;;;;;;;22.50;10.13;;;;;;;-5.20;100.00;94974.50;4978146;28;20037;-58
2022/03/06 01:08:07;;;;;;;21.42;9.65;;;;;;;-5.29;100.00;94966.69;4995375;28;20026;-57
2022/03/06 01:10:35;;;;;;;22.35;10.45;;;;;;;-5.32;100.00;94958.38;4995420;28;20030;-58
2022/03/06 01:13:01;;;;;;;24.70;10.95;;;;;;;-5.41;100.00;94949.78;4994107;28;20481;-57
2022/03/06 01:15:29;;;;;;;23.00;10.73;;;;;;;-5.49;100.00;94949.81;4995279;28;20058;-59
2022/03/06 01:17:55;;;;;;;23.08;10.52;;;;;;;-5.49;100.00;94941.16;4995309;28;20380;-57
2022/03/06 01:20:22;;;;;;;23.33;11.05;;;;;;;-5.44;100.00;94925.81;4995401;28;20037;-55
2022/03/06 01:22:48;;;;;;;25.70;11.73;;;;;;;-5.47;100.00;94919.13;4995173;28;20388;-58
2022/03/06 01:25:20;;;;;;;26.80;11.30;;;;;;;-5.50;100.00;94906.44;4977643;28;20022;-57
2022/03/06 01:27:46;;;;;;;16.20;8.03;;;;;;;-5.44;100.00;94891.88;4993916;28;20030;-59
2022/03/06 01:30:15;;;;;;;24.85;11.50;;;;;;;-5.38;100.00;94889.41;4994991;28;20269;-55
2022/03/06 01:32:40;;;;;;;24.73;11.60;;;;;;;-5.30;100.00;94880.72;4995161;28;20037;-54
2022/03/06 01:35:09;;;;;;;24.35;10.93;;;;;;;-5.24;100.00;94874.78;4994952;28;20469;-54
2022/03/06 01:37:35;;;;;;;27.33;11.95;;;;;;;-5.17;100.00;94867.91;4994816;28;20018;-54
2022/03/06 01:40:00;;;;;;;24.00;10.98;;;;;;;-5.15;100.00;94859.88;4995007;28;20030;-55
2022/03/06 01:42:29;;;;;;;25.95;11.43;;;;;;;-5.16;100.00;94859.09;4995009;28;20026;-54
2022/03/06 01:44:54;;;;;;;26.02;11.15;;;;;;;-5.14;100.00;94851.06;4994808;28;20038;-54
2022/03/06 01:47:34;;;;;;;26.27;11.82;;;;;;;-5.16;100.00;94842.59;4993656;28;20477;-53
2022/03/06 01:50:00;;;;;;;26.23;11.75;;;;;;;-5.16;100.00;94840.00;4994700;28;20057;-53
2022/03/06 01:52:25;;;;;;;26.15;12.10;;;;;;;-5.18;100.00;94839.34;4977038;28;20124;-56
2022/03/06 01:54:51;;;;;;;32.53;11.55;;;;;;;-5.19;100.00;94835.13;4994607;28;20468;-56
2022/03/06 01:57:16;;;;;;;26.17;11.13;;;;;;;-5.19;100.00;94829.91;4994724;28;20377;-58
2022/03/06 01:59:45;;;;;;;22.42;11.05;;;;;;;-5.21;100.00;94824.03;4994582;28;20030;-57
2022/03/06 02:02:20;;;;;;;20.48;9.88;;;;;;;-5.25;100.00;94815.72;4993317;28;20113;-58
2022/03/06 02:04:45;;;;;;;23.13;11.25;;;;;;;-5.17;100.00;94814.88;4978092;28;20042;-56
2022/03/06 02:07:13;;;;;;;22.83;10.88;;;;;;;-5.17;100.00;94814.88;4961920;28;20038;-54
2022/03/06 02:09:45;;;;;;;24.17;10.82;;;;;;;-5.15;100.00;94815.50;4993144;28;20030;-56
2022/03/06 02:12:23;;;;;;;25.60;11.88;;;;;;;-5.13;100.00;94814.34;4994429;28;20030;-56
2022/03/06 02:14:50;;;;;;;25.92;11.07;;;;;;;-5.12;100.00;94799.47;4994585;28;20109;-57
2022/03/06 02:17:15;;;;;;;21.92;10.55;;;;;;;-5.12;100.00;94812.53;4993982;28;20022;-57
2022/03/06 02:20:00;;;;;;;24.30;11.63;;;;;;;-5.16;100.00;94799.03;4994116;28;20040;-54
2022/03/06 02:22:28;;;;;;;23.95;11.05;;;;;;;-5.21;100.00;94803.13;4994195;28;20030;-57
2022/03/06 02:24:55;;;;;;;23.92;10.80;;;;;;;-5.23;100.00;94802.50;4976680;28;20018;-52
2022/03/06 02:27:21;;;;;;;27.85;11.10;;;;;;;-5.23;100.00;94797.28;4993922;28;20019;-53
2022/03/06 02:29:52;;;;;;;26.38;11.20;;;;;;;-5.24;100.00;94801.69;4960371;28;20026;-54
2022/03/06 02:32:20;;;;;;;26.25;10.77;;;;;;;-5.23;100.00;94794.66;4976447;28;20022;-53
2022/03/06 02:34:47;;;;;;;25.98;11.43;;;;;;;-5.23;100.00;94792.88;4960036;28;20030;-55
2022/03/06 02:37:20;;;;;;;20.77;10.80;;;;;;;-5.23;100.00;94789.44;4976380;28;20041;-56
2022/03/06 02:39:49;;;;;;;24.27;10.30;;;;;;;-5.21;100.00;94784.84;4993980;28;20034;-56
2022/03/06 02:42:32;;;;;;;23.60;11.02;;;;;;;-5.18;100.00;94787.13;4993743;28;20027;-53
2022/03/06 02:45:11;;;;;;;23.13;10.20;;;;;;;-5.20;100.00;94783.91;4976477;28;20488;-54
2022/03/06 02:47:37;;;;;;;20.70;9.73;;;;;;;-5.22;100.00;94783.25;4993686;28;20080;-54
2022/03/06 02:50:05;;;;;;;23.60;10.88;;;;;;;-5.20;100.00;94784.72;4993442;28;20038;-54
2022/03/06 02:52:31;;;;;;;23.63;10.73;;;;;;;-5.16;100.00;94788.59;4993640;28;20029;-54
2022/03/06 02:55:00;;;;;;;22.90;11.30;;;;;;;-5.09;100.00;94796.53;4993317;28;20396;-52
2022/03/06 02:57:29;;;;;;;25.85;10.90;;;;;;;-5.04;100.00;94789.78;4993686;28;20018;-53
2022/03/06 02:59:54;;;;;;;25.90;11.25;;;;;;;-5.01;100.00;94788.63;4993473;28;20030;-53
2022/03/06 03:02:20;;;;;;;23.73;11.55;;;;;;;-5.04;100.00;94796.81;4993500;28;20030;-55
2022/03/06 03:04:48;;;;;;;22.02;10.43;;;;;;;-5.15;100.00;94784.97;4992324;28;20053;-53
2022/03/06 03:07:13;;;;;;;22.65;10.95;;;;;;;-5.27;100.00;94781.97;4993193;28;20037;-53
2022/03/06 03:09:42;;;;;;;22.67;10.43;;;;;;;-5.34;100.00;94788.06;4993315;28;20473;-52
2022/03/06 03:12:19;;;;;;;22.20;10.15;;;;;;;-5.34;100.00;94794.09;4993140;28;20065;-52
2022/03/06 03:14:48;;;;;;;22.77;10.13;;;;;;;-5.31;100.00;94785.94;4993219;28;20026;-52
2022/03/06 03:17:19;;;;;;;22.23;10.35;;;;;;;-5.31;100.00;94788.53;4993160;28;20072;-52
2022/03/06 03:19:44;;;;;;;24.02;11.38;;;;;;;-5.33;100.00;94787.88;4993126;28;20036;-52
2022/03/06 03:22:10;;;;;;;25.45;10.57;;;;;;;-5.31;100.00;94806.00;4991924;28;20030;-53
2022/03/06 03:24:35;;;;;;;26.05;11.38;;;;;;;-5.30;100.00;94805.03;4993096;28;20109;-53
2022/03/06 03:27:04;;;;;;;19.67;9.52;;;;;;;-5.36;100.00;94795.25;4993315;28;20029;-54
2022/03/06 03:29:29;;;;;;;22.75;10.20;;;;;;;-5.44;100.00;94780.47;4993320;28;20113;-54
2022/03/06 03:31:54;;;;;;;23.88;9.95;;;;;;;-5.45;100.00;94783.25;4993042;28;20109;-57
2022/03/06 03:34:23;;;;;;;58.42;17.27;;;;;;;-5.38;100.00;94790.22;4992899;28;20026;-53
2022/03/06 03:36:57;;;;;;;32.40;12.63;;;;;;;-5.28;100.00;94790.00;4972489;28;20050;-57
2022/03/06 03:39:23;;;;;;;23.05;9.98;;;;;;;-5.19;100.00;94795.97;4984785;28;20397;-56
2022/03/06 03:41:51;;;;;;;24.88;10.38;;;;;;;-5.18;100.00;94790.56;4993051;28;20038;-57
2022/03/06 03:44:19;;;;;;;20.73;10.10;;;;;;;-5.16;100.00;94796.41;4993048;28;20073;-53
2022/03/06 03:46:44;;;;;;;21.60;10.23;;;;;;;-5.20;100.00;94791.72;4993014;28;20026;-54
2022/03/06 03:49:11;;;;;;;23.23;10.43;;;;;;;-5.16;100.00;94790.38;4993056;28;20081;-53
2022/03/06 03:51:37;;;;;;;21.77;10.45;;;;;;;-5.18;100.00;94800.19;4992891;28;20036;-55
2022/03/06 03:54:05;;;;;;;24.15;10.43;;;;;;;-5.26;100.00;94801.88;4992842;28;20086;-53
2022/03/06 03:56:31;;;;;;;20.80;9.77;;;;;;;-5.32;100.00;94801.75;4993267;28;20429;-54
2022/03/06 03:59:00;;;;;;;25.52;10.85;;;;;;;-5.44;100.00;94803.94;4992902;28;20022;-53
2022/03/06 04:01:25;;;;;;;24.15;10.82;;;;;;;-5.53;100.00;94805.00;4992775;28;20414;-55
2022/03/06 04:04:00;;;;;;;24.80;10.38;;;;;;;-5.56;100.00;94810.56;4992819;28;20046;-56
2022/03/06 04:06:25;;;;;;;22.83;10.10;;;;;;;-5.49;100.00;94806.28;4992592;28;20027;-54
2022/03/06 04:08:53;;;;;;;24.35;10.88;;;;;;;-5.45;100.00;94799.72;4992825;28;20497;-53
2022/03/06 04:11:22;;;;;;;21.42;10.32;;;;;;;-5.43;100.00;94800.34;4992738;28;20057;-54
2022/03/06 04:13:47;;;;;;;21.10;10.40;;;;;;;-5.47;100.00;94799.09;4992737;28;20031;-54
2022/03/06 04:16:12;;;;;;;23.38;10.35;;;;;;;-5.55;100.00;94801.75;4994528;28;20424;-54
2022/03/06 04:18:41;;;;;;;25.20;10.27;;;;;;;-5.44;100.00;94797.91;4996723;28;20018;-55
2022/03/06 04:21:09;;;;;;;20.52;9.35;;;;;;;-5.25;100.00;94800.88;4995306;28;20393;-55
2022/03/06 04:23:35;;;;;;;19.45;9.40;;;;;;;-5.09;100.00;94802.56;4996399;28;20113;-54
2022/03/06 04:26:00;;;;;;;21.10;9.88;;;;;;;-5.04;100.00;94799.41;4995190;28;20162;-57
2022/03/06 04:28:25;;;;;;;23.33;10.43;;;;;;;-5.03;100.00;94798.44;4996478;28;20405;-53
2022/03/06 04:30:51;;;;;;;25.98;10.77;;;;;;;-4.98;100.00;94802.16;4995244;28;20026;-55
2022/03/06 04:33:16;;;;;;;19.88;10.07;;;;;;;-4.99;100.00;94812.78;4996283;28;20022;-55
2022/03/06 04:35:41;;;;;;;19.73;9.23;;;;;;;-5.01;100.00;94807.69;4991823;28;20044;-54
2022/03/06 04:38:26;;;;;;;22.98;9.60;;;;;;;-5.01;100.00;94812.94;4983347;28;20027;-56
2022/03/06 04:40:54;;;;;;;21.10;9.88;;;;;;;-5.01;100.00;94817.34;4992649;28;20042;-54
2022/03/06 04:43:31;;;;;;;22.67;10.13;;;;;;;-5.04;100.00;94815.09;4995012;28;20508;-54
2022/03/06 04:46:01;;;;;;;18.65;9.20;;;;;;;-5.06;100.00;94817.06;4993892;28;20026;-54
2022/03/06 04:48:29;;;;;;;22.25;10.50;;;;;;;-5.11;100.00;94820.19;4995444;28;20022;-54
2022/03/06 04:51:00;;;;;;;21.83;9.02;;;;;;;-5.18;100.00;94821.09;4995444;28;20036;-54
2022/03/06 04:53:26;;;;;;;21.00;9.65;;;;;;;-5.26;100.00;94822.75;4973133;28;20572;-56
2022/03/06 04:55:51;;;;;;;22.42;10.40;;;;;;;-5.38;100.00;94815.50;4974122;28;20110;-54
2022/03/06 04:58:19;;;;;;;23.70;10.35;;;;;;;-5.47;100.00;94822.56;4992872;28;20026;-58
2022/03/06 05:00:44;;;;;;;20.25;9.90;;;;;;;-5.50;100.00;94825.53;4995130;28;20033;-56
2022/03/06 05:03:14;;;;;;;24.48;10.35;;;;;;;-5.44;100.00;94817.00;4994679;28;20046;-54
2022/03/06 05:05:39;;;;;;;18.17;8.35;;;;;;;-5.40;100.00;94813.06;4991299;28;20062;-55
2022/03/06 05:08:05;;;;;;;21.65;9.55;;;;;;;-5.41;100.00;94814.06;4983433;28;20057;-52
2022/03/06 05:10:30;;;;;;;21.92;10.60;;;;;;;-5.39;100.00;94819.09;4995704;28;20034;-56
2022/03/06 05:12:56;;;;;;;21.88;10.45;;;;;;;-5.42;100.00;94817.66;4994781;28;20030;-52
2022/03/06 05:15:24;;;;;;;21.17;9.60;;;;;;;-5.45;100.00;94819.78;4995899;28;20093;-53
2022/03/06 05:17:49;;;;;;;22.58;10.77;;;;;;;-5.46;100.00;94824.19;4995793;28;20081;-52
2022/03/06 05:20:15;;;;;;;22.92;9.50;;;;;;;-5.48;100.00;94822.75;4995410;28;20034;-52
2022/03/06 05:22:41;;;;;;;22.45;10.68;;;;;;;-5.55;100.00;94813.00;4995424;28;20030;-54
2022/03/06 05:25:08;;;;;;;24.50;10.15;;;;;;;-5.64;100.00;94815.84;4995301;28;20018;-53
2022/03/06 05:27:37;;;;;;;21.80;9.82;;;;;;;-5.76;100.00;94819.81;4994453;28;20053;-54
2022/03/06 05:30:05;;;;;;;22.17;10.00;;;;;;;-5.86;100.00;94815.63;4995265;28;20314;-53
2022/03/06 05:32:31;;;;;;;19.13;9.55;;;;;;;-5.94;100.00;94813.09;4994082;28;20113;-53
2022/03/06 05:35:02;;;;;;;23.08;10.27;;;;;;;-6.03;100.00;94813.28;4994926;28;20101;-53
2022/03/06 05:37:29;;;;;;;21.85;9.25;;;;;;;-6.07;100.00;94822.44;4977627;28;20030;-53
2022/03/06 05:39:54;;;;;;;20.80;10.20;;;;;;;-6.08;100.00;94820.78;4977289;28;20065;-52
2022/03/06 05:42:23;;;;;;;23.77;10.48;;;;;;;-6.11;100.00;94832.38;4995049;28;20073;-56
2022/03/06 05:44:48;;;;;;;24.77;11.13;;;;;;;-6.18;100.00;94829.66;4994926;28;20026;-55
2022/03/06 05:47:17;;;;;;;24.00;10.52;;;;;;;-6.22;100.00;94837.97;4993918;28;20030;-53
2022/03/06 05:49:42;;;;;;;22.70;10.05;;;;;;;-6.25;100.00;94841.72;4994461;28;20026;-53
2022/03/06 05:52:10;;;;;;;26.10;10.10;;;;;;;-6.27;100.00;94846.28;4995786;28;20608;-52
2022/03/06 05:54:36;;;;;;;20.30;10.18;;;;;;;-6.24;100.00;94855.56;4995674;28;20413;-53
2022/03/06 05:57:05;;;;;;;25.38;10.63;;;;;;;-6.19;100.00;94848.03;4995101;28;20027;-53
2022/03/06 05:59:30;;;;;;;23.92;10.23;;;;;;;-6.04;100.00;94867.22;4994742;28;20393;-56
2022/03/06 06:01:55;;;;;;;20.85;10.30;;;;;;;-5.87;100.00;94857.50;4994499;28;20022;-53
2022/03/06 06:04:21;;;;;;;27.50;11.13;;;;;;;-5.74;100.00;94859.59;4992570;28;20030;-58
2022/03/06 06:06:46;;;;;;;24.48;11.75;;;;;;;-5.65;100.00;94868.97;4997201;28;20105;-53
2022/03/06 06:09:14;;;;;;;23.55;10.52;;;;;;;-5.61;100.00;94868.47;4992118;28;20030;-55
2022/03/06 06:11:40;;;;;;;22.98;10.10;;;;;;;-5.58;100.00;94867.31;4989681;28;20105;-56
2022/03/06 06:14:05;;;;;;;22.85;10.80;;;;;;;-5.53;100.00;94866.81;4994015;28;20121;-59
2022/03/06 06:16:31;;;;;;;20.70;9.80;;;;;;;-5.50;100.00;94877.72;4989088;28;20066;-57
2022/03/06 06:18:57;;;;;;;24.73;11.38;;;;;;;-5.46;100.00;94871.16;4992276;28;20058;-54
2022/03/06 06:21:25;;;;;;;25.85;11.38;;;;;;;-5.44;100.00;94873.59;4994200;28;20037;-53
2022/03/06 06:23:54;;;;;;;23.17;10.63;;;;;;;-5.40;100.00;94878.31;4974205;28;20033;-56
2022/03/06 06:26:19;;;;;;;26.58;11.30;;;;;;;-5.38;100.00;94880.75;4975518;28;20030;-53
2022/03/06 06:28:52;;;;;;;28.65;11.40;;;;;;;-5.36;100.00;94884.00;4975080;28;20271;-56
2022/03/06 06:31:18;;;;;;;23.10;11.25;;;;;;;-5.33;100.00;94883.66;4992202;28;20561;-56
2022/03/06 06:33:50;;;;;;;26.80;11.57;;;;;;;-5.31;100.00;94879.91;4990774;28;20113;-55
2022/03/06 06:36:15;;;;;;;25.80;12.13;;;;;;;-5.31;100.00;94884.31;4993026;28;20384;-57
2022/03/06 06:38:41;;;;;;;27.27;11.00;;;;;;;-5.27;100.00;94885.59;4972658;28;20042;-55
2022/03/06 06:41:07;;;;;;;26.50;10.88;;;;;;;-5.23;100.00;94878.22;4990434;28;20026;-54
2022/03/06 06:43:32;;;;;;;21.48;10.30;;;;;;;-5.20;100.00;94881.31;4972804;28;20070;-55
2022/03/06 06:45:57;;;;;;;23.92;10.65;;;;;;;-5.14;100.00;94878.00;4974488;28;20473;-56
2022/03/06 06:48:23;;;;;;;24.52;11.30;;;;;;;-5.09;100.00;94880.91;4992476;28;20022;-54
2022/03/06 06:50:48;;;;;;;25.90;10.98;;;;;;;-5.04;100.00;94880.38;4988160;28;20046;-56
2022/03/06 06:53:13;;;;;;;23.10;11.38;;;;;;;-5.02;100.00;94881.81;4991575;28;20500;-53
2022/03/06 06:55:39;;;;;;;24.30;11.57;;;;;;;-5.00;100.00;94889.47;4991755;28;20497;-53
2022/03/06 06:58:16;;;;;;;22.10;10.30;;;;;;;-5.03;100.00;94895.06;4970385;28;20015;-56
2022/03/06 07:00:48;;;;;;;25.33;10.40;;;;;;;-4.99;100.00;94885.91;4990770;28;20166;-53
2022/03/06 07:03:14;;;;;;;21.27;10.35;;;;;;;-4.94;100.00;94895.81;4990370;28;20081;-55
2022/03/06 07:05:39;;;;;;;27.10;10.88;;;;;;;-4.89;100.00;94893.47;4919142;28;20042;-55
2022/03/06 07:08:05;;;;;;;24.58;11.15;;;;;;;-4.83;100.00;94900.63;4991350;28;20060;-55
2022/03/06 07:10:30;;;;;;;26.42;11.13;;;;;;;-4.79;100.00;94891.44;4966658;28;20082;-55
2022/03/06 07:12:56;;;;;;;26.98;11.77;;;;;;;-4.69;100.00;94889.41;4991891;28;20026;-57
2022/03/06 07:15:28;;;;;;;24.15;10.32;;;;;;;-4.57;100.00;94887.19;4988265;28;20477;-57
2022/03/06 07:17:59;;;;;;;23.10;11.02;;;;;;;-4.43;100.00;94889.03;4974425;28;20022;-55
2022/03/06 07:20:25;;;;;;;23.05;10.23;;;;;;;-4.28;100.00;94886.44;4993102;28;20489;-53
2022/03/06 07:22:51;;;;;;;24.88;10.32;;;;;;;-4.09;100.00;94885.94;4991352;28;20033;-53
2022/03/06 07:25:16;;;;;;;22.75;10.57;;;;;;;-3.92;100.00;94886.53;4992753;28;20027;-53
2022/03/06 07:27:42;;;;;;;24.80;10.45;;;;;;;-3.79;100.00;94884.13;4992666;28;20026;-55
2022/03/06 07:30:13;;;;;;;19.85;9.43;;;;;;;-3.65;100.00;94888.53;4992943;28;20219;-53
2022/03/06 07:32:46;;;;;;;24.00;10.73;;;;;;;-3.46;100.00;94884.53;4992861;28;20034;-55
2022/03/06 07:35:13;;;;;;;23.98;10.77;;;;;;;-3.30;100.00;94884.31;4993166;28;20568;-53
2022/03/06 07:37:39;;;;;;;23.55;10.90;;;;;;;-3.10;100.00;94887.16;4992761;28;20042;-57
2022/03/06 07:40:06;;;;;;;20.73;10.02;;;;;;;-2.87;100.00;94879.13;4975452;28;20051;-57
2022/03/06 07:42:31;;;;;;;22.63;11.02;;;;;;;-2.66;100.00;94878.31;4993188;28;20061;-54
2022/03/06 07:45:00;;;;;;;22.52;11.32;;;;;;;-2.45;100.00;94877.47;4992799;28;20057;-54
2022/03/06 07:47:26;;;;;;;22.08;10.77;;;;;;;-2.30;100.00;94872.13;4991344;28;20192;-52
2022/03/06 07:49:54;;;;;;;20.88;10.77;;;;;;;-2.17;100.00;94866.97;4992567;28;20026;-55
2022/03/06 07:52:23;;;;;;;21.42;10.02;;;;;;;-1.99;100.00;94869.13;4975097;28;20533;-53
2022/03/06 07:54:51;;;;;;;20.73;10.13;;;;;;;-1.83;100.00;94864.38;4992381;28;20030;-53
2022/03/06 07:57:20;;;;;;;18.92;9.55;;;;;;;-1.68;100.00;94860.81;4975159;28;20022;-57
2022/03/06 07:59:53;;;;;;;21.00;9.77;;;;;;;-1.53;100.00;94854.41;4992634;28;20113;-58
2022/03/06 08:02:21;;;;;;;;;;;;;;;-1.50;100.00;94861.94;4993241;28;20026;-59
2022/03/06 08:04:49;;;;;;;20.02;9.98;;;;;;;-1.38;100.00;94864.00;4988944;28;19918;-59
2022/03/06 08:07:15;;;;;;;21.05;9.75;;;;;;;-1.35;100.00;94864.41;4965760;28;20052;-60
2022/03/06 08:09:43;;;;;;;21.13;10.02;;;;;;;-1.20;100.00;94858.97;4992598;28;20022;-61
2022/03/06 08:12:26;;;;;;;22.05;10.43;;;;;;;-1.07;100.00;94880.06;4931009;28;20544;-59
2022/03/06 08:14:58;;;;;;;20.45;10.02;;;;;;;-0.86;100.00;94883.56;4971753;28;20064;-59
2022/03/06 08:17:23;;;;;;;20.75;10.05;;;;;;;-0.85;100.00;94888.63;4968756;28;20026;-58
2022/03/06 08:19:49;;;;;;;21.73;10.63;;;;;;;-0.89;100.00;94897.91;4992427;28;20454;-58
2022/03/06 08:22:23;;;;;;;23.08;11.10;;;;;;;-0.88;100.00;94907.41;4992536;28;20030;-59
2022/03/06 08:24:49;;;;;;;20.10;9.98;;;;;;;-0.74;100.00;94910.91;4991449;28;20037;-62
2022/03/06 08:27:23;;;;;;;19.92;10.20;;;;;;;-0.70;100.00;94920.00;4989713;28;20023;-61
2022/03/06 08:29:49;;;;;;;22.85;11.23;;;;;;;-0.51;100.00;94919.22;4990593;28;20105;-60
2022/03/06 08:32:15;;;;;;;21.75;10.50;;;;;;;-0.39;100.00;94930.78;4956246;28;20448;-61
2022/03/06 08:34:41;;;;;;;21.40;10.63;;;;;;;-0.33;100.00;94942.31;4991832;28;20034;-60
2022/03/06 08:37:12;;;;;;;21.17;10.30;;;;;;;-0.28;100.00;94963.59;4990801;28;20029;-62
2022/03/06 08:39:38;;;;;;;21.55;11.00;;;;;;;-0.13;100.00;94966.84;4991302;28;20219;-62
2022/03/06 08:42:03;;;;;;;20.13;10.45;;;;;;;-0.13;100.00;94972.09;4990920;28;20026;-62
2022/03/06 08:44:29;;;;;;;19.95;10.77;;;;;;;0.13;100.00;94987.13;4991324;28;20114;-60
2022/03/06 08:46:54;;;;;;;19.48;11.00;;;;;;;0.31;100.00;95004.13;4990755;28;20098;-61
2022/03/06 08:49:22;;;;;;;20.05;11.07;;;;;;;0.20;100.00;95022.16;4989581;28;20015;-61
2022/03/06 08:51:50;;;;;;;22.42;11.07;;;;;;;0.22;100.00;95022.78;4991450;28;20030;-63
2022/03/06 08:54:15;;;;;;;23.75;11.48;;;;;;;0.37;100.00;95035.75;4990623;28;20085;-64
2022/03/06 08:56:42;;;;;;;20.67;11.13;;;;;;;0.15;100.00;95055.38;4990797;28;20374;-62
2022/03/06 08:59:08;;;;;;;22.08;11.10;;;;;;;0.40;100.00;95058.22;4992111;28;20026;-63
2022/03/06 09:01:36;;;;;;;22.70;11.23;;;;;;;0.22;100.00;95085.19;4991865;28;20374;-63
2022/03/06 09:04:01;;;;;;;23.30;11.07;;;;;;;0.21;100.00;95096.72;4994654;28;20533;-63
2022/03/06 09:06:27;;;;;;;23.40;11.27;;;;;;;-0.04;100.00;95107.00;4995249;28;20077;-61
2022/03/06 09:08:56;;;;;;;20.52;10.77;;;;;;;-0.03;100.00;95121.78;4978161;28;20022;-63
2022/03/06 09:11:21;;;;;;;21.75;10.68;;;;;;;0.16;100.00;95123.66;4995458;28;20083;-63
2022/03/06 09:13:47;;;;;;;23.63;10.85;;;;;;;0.49;100.00;95121.06;4961649;28;20060;-63
2022/03/06 09:16:12;;;;;;;21.15;11.07;;;;;;;0.32;100.00;95137.47;4995288;28;20501;-64
2022/03/06 09:18:40;;;;;;;22.05;11.48;;;;;;;0.76;100.00;95135.09;4995267;28;20553;-64
2022/03/06 09:21:12;;;;;;;19.77;10.55;;;;;;;1.22;100.00;95138.72;4995218;28;20068;-62
2022/03/06 09:23:37;;;;;;;24.92;11.45;;;;;;;1.38;100.00;95156.75;4994720;28;20026;-63
2022/03/06 09:26:02;;;;;;;20.45;11.48;;;;;;;1.60;100.00;95165.22;4990229;28;20093;-62
2022/03/06 09:28:28;;;;;;;22.25;11.38;;;;;;;1.71;100.00;95173.31;4974937;28;20065;-63
2022/03/06 09:30:53;;;;;;;21.40;11.15;;;;;;;1.84;100.00;95211.25;4965190;28;20033;-63
2022/03/06 09:33:21;;;;;;;20.27;11.48;;;;;;;1.80;100.00;95218.78;4993719;28;20030;-64
2022/03/06 09:35:46;;;;;;;22.48;11.25;;;;;;;1.98;100.00;95229.53;4994902;28;20026;-64
2022/03/06 09:38:12;;;;;;;24.50;11.95;;;;;;;1.67;100.00;95261.06;4991218;28;20472;-64
2022/03/06 09:40:41;;;;;;;21.65;11.80;;;;;;;1.66;100.00;95265.56;4974438;28;20042;-63
2022/03/06 09:43:13;;;;;;;20.60;11.15;;;;;;;1.54;100.00;95275.09;4992103;28;20041;-60
2022/03/06 09:45:44;;;;;;;20.67;11.07;;;;;;;1.76;100.00;95280.16;4992592;28;20028;-63
2022/03/06 09:48:14;;;;;;;19.42;11.40;;;;;;;1.88;100.00;95286.44;4959317;28;20029;-61
2022/03/06 09:50:40;;;;;;;20.65;11.75;;;;;;;1.90;100.00;95292.31;4992321;28;20077;-61
2022/03/06 09:53:08;;;;;;;23.45;12.40;;;;;;;2.23;100.00;95295.72;4991865;28;20042;-62
2022/03/06 09:55:34;;;;;;;22.20;11.80;;;;;;;2.58;100.00;95311.25;4991707;28;20489;-63
2022/03/06 09:57:59;;;;;;;21.80;11.63;;;;;;;2.79;100.00;95310.94;4992492;28;20042;-63
2022/03/06 10:00:25;;;;;;;21.70;11.88;;;;;;;2.65;100.00;95341.13;4991525;28;20029;-63
2022/03/06 10:02:57;;;;;;;20.33;11.23;;;;;;;2.68;100.00;95351.28;4992344;28;20037;-63
2022/03/06 10:05:37;;;;;;;22.23;12.00;;;;;;;2.82;100.00;95358.16;4991103;28;20092;-63
2022/03/06 10:08:15;;;;;;;24.80;12.23;;;;;;;3.00;100.00;95364.59;4976774;28;20030;-63
2022/03/06 10:10:41;;;;;;;20.35;11.38;;;;;;;3.09;100.00;95387.97;4994509;28;20034;-63
2022/03/06 10:13:33;;;;;;;21.63;11.23;;;;;;;2.86;100.00;95400.88;4993897;28;20034;-63
2022/03/06 10:16:18;;;;;;;23.50;11.75;;;;;;;2.86;100.00;95398.22;4967051;28;20302;-63
2022/03/06 10:19:01;;;;;;;21.67;11.93;;;;;;;3.26;100.00;95404.19;4994179;28;20213;-63
2022/03/06 10:21:29;;;;;;;21.23;11.82;;;;;;;3.22;100.00;95416.19;4994046;28;20034;-61
2022/03/06 10:23:58;;;;;;;21.77;11.45;;;;;;;3.78;100.00;95434.00;4994061;28;20038;-63
2022/03/06 10:26:29;;;;;;;20.20;11.15;;;;;;;4.01;100.00;95447.50;4994027;28;20069;-62
2022/03/06 10:28:58;;;;;;;22.13;12.13;;;;;;;3.96;100.00;95465.91;4992753;28;20030;-63
2022/03/06 10:31:32;;;;;;;21.10;11.73;;;;;;;4.27;100.00;95472.22;4994307;28;20497;-62
2022/03/06 10:34:34;;;;;;;19.23;11.32;;;;;;;4.36;100.00;95482.34;4976425;28;20037;-63
2022/03/06 10:37:01;;;;;;;21.17;11.98;;;;;;;4.55;100.00;95490.34;4983896;28;20037;-63
2022/03/06 10:39:27;;;;;;;24.00;12.73;;;;;;;4.55;100.00;95495.66;4980974;28;20055;-62
2022/03/06 10:41:54;;;;;;;21.45;11.80;;;;;;;4.62;100.00;95510.50;4990178;28;20058;-63
2022/03/06 10:44:22;;;;;;;25.50;13.25;;;;;;;4.41;100.00;95516.16;4992966;28;20595;-63
2022/03/06 10:47:04;;;;;;;20.45;11.80;;;;;;;4.88;100.00;95513.94;4992771;28;20034;-63
2022/03/06 10:49:32;;;;;;;22.17;12.95;;;;;;;5.29;100.00;95517.81;4991282;28;20551;-63
2022/03/06 10:52:15;;;;;;;24.30;12.93;;;;;;;5.05;100.00;95536.25;4992942;28;20504;-63
2022/03/06 10:54:49;;;;;;;;;;;;;;;4.91;100.00;95551.47;4972650;28;20019;-63
2022/03/06 10:57:21;;;;;;;21.77;11.55;;;;;;;4.34;100.00;95548.06;4990115;28;20004;-63
2022/03/06 10:59:51;;;;;;;19.92;11.05;;;;;;;4.06;100.00;95552.91;4971602;28;20434;-63
2022/03/06 11:02:20;;;;;;;22.00;11.60;;;;;;;4.38;100.00;95551.09;4988947;28;20030;-63
2022/03/06 11:04:53;;;;;;;18.38;12.05;;;;;;;4.19;100.00;95546.72;4983015;23;20105;-63
2022/03/06 11:07:19;;;;;;;23.30;12.23;;;;;;;4.07;100.00;95551.88;4984996;28;20034;-63
2022/03/06 11:09:57;;;;;;;21.52;11.57;;;;;;;4.28;100.00;95543.59;4991833;28;20439;-63
2022/03/06 11:12:26;;;;;;;20.17;11.77;;;;;;;4.34;100.00;95542.75;4993244;28;20038;-62
2022/03/06 11:14:52;;;;;;;22.02;12.23;;;;;;;4.38;100.00;95547.63;4995562;28;20476;-65
2022/03/06 11:17:20;;;;;;;21.83;11.57;;;;;;;4.37;100.00;95552.09;5012898;28;20032;-63